Time;durP1;ratioP1;P1;durP2;ratioP2;P2;SDS_P1;SDS_P2;PMS_P1;PMS_P2;Temp;Humidity;BMP_temperature;BMP_pressure;BME280_temperature;BME280_humidity;BME280_pressure;Samples;Min_cycle;Max_cycle;Signal;HPM_P1;HPM_P2
2022/05/21 00:02:14;;;;;;;21.90;12.90;;;;;;;10.05;98.04;99251.61;104792;1276;59891;-67
2022/05/21 00:05:03;;;;;;;22.20;13.30;;;;;;;10.07;97.42;99241.77;104750;1277;59592;-66
2022/05/21 00:07:52;;;;;;;19.10;11.80;;;;;;;10.09;97.25;99229.32;104625;1277;72505;-67
2022/05/21 00:10:41;;;;;;;24.70;13.50;;;;;;;10.11;97.36;99215.84;104783;1277;68019;-66
2022/05/21 00:13:29;;;;;;;27.60;14.50;;;;;;;10.15;97.09;99211.74;104537;1277;73403;-65
2022/05/21 00:16:17;;;;;;;25.30;14.40;;;;;;;10.19;97.24;99206.81;104726;1276;59718;-69
2022/05/21 00:19:06;;;;;;;24.60;14.10;;;;;;;10.24;96.95;99198.02;104739;1276;60325;-67
2022/05/21 00:21:56;;;;;;;25.50;13.90;;;;;;;10.30;96.97;99183.34;105147;1276;72717;-67
2022/05/21 00:24:44;;;;;;;24.10;13.30;;;;;;;10.36;96.97;99175.36;104720;1276;66307;-65
2022/05/21 00:27:32;;;;;;;24.10;13.50;;;;;;;10.42;96.68;99174.60;104697;1277;74456;-63
2022/05/21 00:30:20;;;;;;;21.90;12.50;;;;;;;10.47;96.71;99179.86;104699;1276;59788;-64
2022/05/21 00:33:08;;;;;;;23.00;12.70;;;;;;;10.50;96.47;99174.74;104658;1276;59798;-64
2022/05/21 00:35:58;;;;;;;25.30;13.60;;;;;;;10.55;96.31;99168.10;104676;1276;73120;-64
2022/05/21 00:38:47;;;;;;;22.30;12.00;;;;;;;10.60;96.31;99152.61;104684;1276;68544;-66
2022/05/21 00:41:36;;;;;;;23.40;13.30;;;;;;;10.65;95.97;99138.48;104651;1276;72189;-64
2022/05/21 00:44:24;;;;;;;21.70;13.30;;;;;;;10.70;95.85;99126.27;104575;1278;59698;-64
2022/05/21 00:47:12;;;;;;;20.90;11.70;;;;;;;10.77;95.88;99116.95;104686;1276;60243;-62
2022/05/21 00:50:01;;;;;;;23.70;12.90;;;;;;;10.82;95.38;99110.23;104663;1276;72202;-63
2022/05/21 00:52:51;;;;;;;22.00;11.60;;;;;;;10.87;95.22;99104.48;104589;1276;69218;-63
2022/05/21 00:55:39;;;;;;;22.00;12.60;;;;;;;10.92;94.90;99097.34;104512;1276;74342;-64
2022/05/21 01:01:48;;;;;;;23.30;11.80;;;;;;;10.97;94.77;99083.52;104733;1276;59676;-64
2022/05/21 01:04:37;;;;;;;22.40;11.90;;;;;;;11.02;94.40;99082.48;104562;1276;73710;-64
2022/05/21 01:07:26;;;;;;;19.30;10.80;;;;;;;11.05;94.38;99075.59;104580;1277;67989;-64
2022/05/21 01:10:20;;;;;;;19.40;11.30;;;;;;;11.10;94.01;99076.04;104613;1276;73469;-61
2022/05/21 01:13:15;;;;;;;19.80;11.50;;;;;;;11.13;93.61;99071.92;104657;1277;61331;-63
2022/05/21 01:16:04;;;;;;;20.10;11.40;;;;;;;11.14;93.37;99061.35;104551;1276;59541;-65
2022/05/21 01:18:52;;;;;;;19.90;11.40;;;;;;;11.15;93.36;99053.20;104694;1276;74295;-64
2022/05/21 01:21:41;;;;;;;19.80;11.60;;;;;;;11.20;92.98;99049.40;104872;1276;67562;-67
2022/05/21 01:24:29;;;;;;;21.70;12.70;;;;;;;11.24;93.20;99047.75;104792;1277;72080;-66
2022/05/21 01:27:17;;;;;;;23.10;12.60;;;;;;;11.26;92.64;99044.91;104629;1276;59953;-66
2022/05/21 01:30:09;;;;;;;25.90;14.10;;;;;;;11.27;92.66;99042.69;104916;1276;59658;-67
2022/05/21 01:32:57;;;;;;;24.50;12.70;;;;;;;11.25;92.54;99038.34;104672;1276;72700;-64
2022/05/21 01:35:47;;;;;;;26.10;12.30;;;;;;;11.25;92.57;99031.63;104932;1276;67353;-71
2022/05/21 01:38:37;;;;;;;22.40;11.70;;;;;;;11.24;92.51;99029.94;104605;1276;73439;-69
2022/05/21 01:41:25;;;;;;;22.70;12.50;;;;;;;11.22;92.56;99020.42;104561;1276;59700;-70
2022/05/21 01:47:21;;;;;;;20.00;11.80;;;;;;;11.19;93.09;99016.74;104651;1277;73491;-67
2022/05/21 01:50:09;;;;;;;22.20;12.80;;;;;;;11.19;92.72;99013.58;104511;1278;68638;-66
2022/05/21 01:52:58;;;;;;;20.10;12.40;;;;;;;11.20;93.02;99010.69;104623;1277;73084;-65
2022/05/21 01:55:47;;;;;;;23.20;12.40;;;;;;;11.22;93.52;98998.59;104601;1276;61229;-65
2022/05/21 01:58:36;;;;;;;20.10;12.10;;;;;;;11.26;93.45;98997.84;105086;1277;59769;-64
2022/05/21 02:01:25;;;;;;;22.90;12.90;;;;;;;11.33;93.12;98993.09;104497;1276;72891;-66
2022/05/21 02:04:13;;;;;;;22.70;12.30;;;;;;;11.37;92.82;98990.77;104757;1276;68292;-69
2022/05/21 02:07:01;;;;;;;20.90;12.00;;;;;;;11.41;92.65;98990.51;104939;1276;73508;-64
2022/05/21 02:09:49;;;;;;;20.90;12.20;;;;;;;11.46;92.54;98982.90;105158;1276;60101;-63
2022/05/21 02:12:37;;;;;;;19.90;12.60;;;;;;;11.51;92.63;98980.98;105235;1276;60586;-66
2022/05/21 02:15:25;;;;;;;20.90;12.00;;;;;;;11.57;92.12;98980.05;105032;1276;73652;-64
2022/05/21 02:18:14;;;;;;;26.00;13.90;;;;;;;11.62;92.04;98981.89;104931;1276;69962;-67
2022/05/21 02:21:03;;;;;;;24.80;13.50;;;;;;;11.64;91.76;98968.34;104739;1276;73618;-65
2022/05/21 02:23:51;;;;;;;25.10;14.40;;;;;;;11.68;91.63;98961.89;104723;1276;59645;-66
2022/05/21 02:26:39;;;;;;;23.70;12.60;;;;;;;11.71;91.43;98958.61;104707;1276;60429;-66
2022/05/21 02:29:28;;;;;;;23.20;13.10;;;;;;;11.73;91.73;98951.46;104430;1276;74799;-66
2022/05/21 02:32:17;;;;;;;25.20;13.30;;;;;;;11.75;92.69;98945.44;104698;1276;69144;-62
2022/05/21 02:35:06;;;;;;;20.50;12.60;;;;;;;11.74;92.73;98938.77;104653;1276;71893;-63
2022/05/21 02:41:01;;;;;;;20.60;12.60;;;;;;;11.71;93.08;98937.06;104833;1276;60541;-66
2022/05/21 02:43:49;;;;;;;20.80;12.80;;;;;;;11.72;93.57;98929.36;104866;1276;74357;-65
2022/05/21 02:46:38;;;;;;;18.30;11.80;;;;;;;11.72;93.65;98924.36;104882;1276;65606;-66
2022/05/21 02:49:27;;;;;;;22.00;12.90;;;;;;;11.73;93.46;98914.48;104881;1276;72481;-67
2022/05/21 02:52:15;;;;;;;21.50;12.90;;;;;;;11.76;93.52;98910.80;104887;1275;59699;-68
2022/05/21 02:55:06;;;;;;;24.10;13.60;;;;;;;11.77;93.57;98906.48;104707;1276;60261;-66
2022/05/21 02:57:55;;;;;;;24.40;14.00;;;;;;;11.75;93.62;98900.04;104732;1273;72605;-67
2022/05/21 03:00:44;;;;;;;23.30;14.00;;;;;;;11.78;93.87;98893.77;104949;1273;66789;-67
2022/05/21 03:03:32;;;;;;;20.40;12.40;;;;;;;11.78;93.89;98883.83;104700;1273;71969;-67
2022/05/21 03:06:20;;;;;;;20.40;13.30;;;;;;;11.76;93.78;98880.76;104781;1273;59696;-67
2022/05/21 03:12:15;;;;;;;21.00;13.10;;;;;;;11.78;93.93;98869.04;104809;1273;73029;-65
2022/05/21 03:15:04;;;;;;;22.30;12.90;;;;;;;11.79;94.10;98857.05;104706;1273;68090;-64
2022/05/21 03:17:52;;;;;;;20.90;12.90;;;;;;;11.80;94.07;98847.54;104732;1273;73657;-65
2022/05/21 03:20:41;;;;;;;20.70;12.70;;;;;;;11.82;94.14;98838.44;104821;1273;59820;-66
2022/05/21 03:23:30;;;;;;;20.90;12.50;;;;;;;11.82;94.12;98823.92;104839;1273;59689;-64
2022/05/21 03:26:18;;;;;;;19.40;10.80;;;;;;;11.83;94.38;98813.70;104968;1273;72992;-63
2022/05/21 03:29:06;;;;;;;18.40;11.60;;;;;;;11.84;94.66;98798.23;104754;1273;68520;-68
2022/05/21 03:31:54;;;;;;;21.30;12.50;;;;;;;11.86;94.55;98801.38;104875;1273;73276;-66
2022/05/21 03:34:43;;;;;;;25.80;14.50;;;;;;;11.84;94.47;98791.45;104798;1273;59659;-66
2022/05/21 03:37:31;;;;;;;21.70;13.80;;;;;;;11.82;94.98;98787.60;104776;1273;61201;-66
2022/05/21 03:40:26;;;;;;;23.00;13.80;;;;;;;11.79;95.55;98782.95;104785;1273;74779;-68
2022/05/21 03:43:13;;;;;;;26.40;13.90;;;;;;;11.72;96.17;98780.41;104554;1274;67038;-66
2022/05/21 03:46:03;;;;;;;24.10;13.90;;;;;;;11.68;96.61;98767.21;104927;1273;74003;-64
2022/05/21 03:48:51;;;;;;;22.90;14.70;;;;;;;11.66;96.57;98762.83;104696;1276;59686;-65
2022/05/21 03:51:39;;;;;;;21.20;14.00;;;;;;;11.65;96.70;98747.96;104754;1273;60447;-68
2022/05/21 03:54:26;;;;;;;20.00;12.40;;;;;;;11.64;96.89;98735.27;104505;1276;74771;-66
2022/05/21 03:57:15;;;;;;;20.10;12.70;;;;;;;11.66;97.09;98729.16;104509;1273;68034;-69
2022/05/21 04:00:11;;;;;;;22.50;13.20;;;;;;;11.68;97.26;98726.33;104614;1273;73332;-65
2022/05/21 04:03:01;;;;;;;19.10;12.40;;;;;;;11.72;96.51;98725.61;104664;1273;59830;-66
2022/05/21 04:05:50;;;;;;;21.20;13.30;;;;;;;11.72;96.23;98730.95;104711;1273;61006;-68
2022/05/21 04:08:39;;;;;;;22.10;13.10;;;;;;;11.74;96.12;98731.95;104781;1273;73955;-67
2022/05/21 04:11:46;;;;;;;22.60;13.20;;;;;;;11.78;95.99;98738.83;104890;1273;67443;-65
2022/05/21 04:14:34;;;;;;;23.90;14.30;;;;;;;11.84;95.50;98757.26;104827;1273;73541;-65
2022/05/21 04:17:22;;;;;;;24.10;14.00;;;;;;;11.87;95.20;98789.63;104667;1273;60118;-63
2022/05/21 04:20:15;;;;;;;19.20;12.30;;;;;;;11.85;94.90;98820.02;104706;1273;59650;-67
2022/05/21 04:23:04;;;;;;;20.00;12.50;;;;;;;11.82;95.37;98796.70;104797;1273;74034;-65
2022/05/21 04:25:51;;;;;;;22.40;13.30;;;;;;;11.76;96.36;98739.04;105084;1273;68383;-67
2022/05/21 04:28:40;;;;;;;27.60;15.00;;;;;;;11.81;97.23;98769.08;104815;1273;73513;-65
2022/05/21 04:31:29;;;;;;;25.40;14.90;;;;;;;11.80;97.47;98761.02;104862;1273;60097;-66
2022/05/21 04:34:19;;;;;;;25.70;15.00;;;;;;;11.82;97.77;98761.34;104676;1273;60706;-65
2022/05/21 04:37:07;;;;;;;27.30;14.90;;;;;;;11.84;97.96;98757.59;104675;1273;72631;-65
2022/05/21 04:39:55;;;;;;;27.30;14.90;;;;;;;11.88;98.30;98748.77;104657;1273;69601;-65
2022/05/21 04:42:43;;;;;;;25.70;14.60;;;;;;;11.90;98.49;98745.74;104737;1273;74047;-65
2022/05/21 04:45:31;;;;;;;26.10;14.70;;;;;;;11.92;98.94;98738.42;105170;1274;59677;-64
2022/05/21 04:48:19;;;;;;;25.00;15.20;;;;;;;11.92;99.32;98724.67;104743;1273;59664;-64
2022/05/21 04:51:08;;;;;;;24.80;15.30;;;;;;;11.92;99.06;98723.91;105083;1273;73866;-64
2022/05/21 04:53:56;;;;;;;27.40;15.30;;;;;;;11.92;99.78;98730.00;105208;1273;66764;-64
2022/05/21 04:56:44;;;;;;;28.10;15.90;;;;;;;11.93;99.89;98721.61;104744;1273;73305;-66
2022/05/21 04:59:33;;;;;;;29.00;16.80;;;;;;;11.92;99.90;98724.00;104938;1273;59675;-63
2022/05/21 05:02:21;;;;;;;25.20;15.80;;;;;;;11.91;99.79;98711.09;104666;1273;60722;-62
2022/05/21 05:05:09;;;;;;;28.90;16.00;;;;;;;11.90;99.60;98702.70;104561;1273;73025;-70
2022/05/21 05:07:57;;;;;;;26.90;16.50;;;;;;;11.90;99.76;98696.83;105006;1273;69140;-70
2022/05/21 05:10:47;;;;;;;21.20;13.90;;;;;;;11.92;100.00;98694.11;104702;1273;74922;-74
2022/05/21 05:13:35;;;;;;;26.10;16.20;;;;;;;11.89;100.00;98679.02;104721;1273;59733;-71
2022/05/21 05:16:23;;;;;;;30.00;18.00;;;;;;;11.94;100.00;98686.02;105205;1273;60567;-72
2022/05/21 05:19:12;;;;;;;27.40;15.90;;;;;;;11.96;100.00;98682.42;106184;1273;72434;-72
2022/05/21 05:22:00;;;;;;;21.10;13.60;;;;;;;11.97;100.00;98673.60;105953;1273;69557;-70
2022/05/21 05:24:49;;;;;;;22.90;14.20;;;;;;;11.93;99.89;98669.67;106401;1273;72033;-71
2022/05/21 05:27:37;;;;;;;24.50;15.80;;;;;;;11.90;99.61;98670.88;105978;1274;59656;-71
2022/05/21 05:30:26;;;;;;;23.90;15.40;;;;;;;11.88;99.74;98662.77;104936;1274;59644;-74
2022/05/21 05:33:16;;;;;;;24.60;15.70;;;;;;;11.88;99.53;98649.28;104588;1274;73033;-70
2022/05/21 05:36:05;;;;;;;22.70;14.20;;;;;;;11.81;99.65;98637.42;104720;1273;68539;-71
2022/05/21 05:38:53;;;;;;;26.80;17.90;;;;;;;11.76;99.98;98641.27;105066;1273;74021;-71
2022/05/21 05:41:42;;;;;;;26.20;16.60;;;;;;;11.74;100.00;98646.94;104717;1273;61285;-69
2022/05/21 05:44:31;;;;;;;25.80;17.30;;;;;;;11.73;100.00;98643.67;104797;1273;59647;-70
2022/05/21 05:47:19;;;;;;;26.10;17.60;;;;;;;11.74;100.00;98640.94;104970;1273;73374;-73
2022/05/21 05:50:08;;;;;;;26.20;16.70;;;;;;;11.78;100.00;98645.31;104780;1274;68679;-71
2022/05/21 05:53:03;;;;;;;25.70;16.60;;;;;;;11.80;100.00;98642.80;105073;1273;73606;-74
2022/05/21 05:55:51;;;;;;;24.00;16.10;;;;;;;11.83;100.00;98637.05;104895;1274;59722;-70
2022/05/21 06:01:46;;;;;;;23.80;15.30;;;;;;;11.87;100.00;98634.91;104972;1274;73868;-68
2022/05/21 06:04:34;;;;;;;26.20;16.30;;;;;;;11.91;100.00;98627.27;105230;1273;67467;-66
2022/05/21 06:07:22;;;;;;;22.00;14.30;;;;;;;11.95;100.00;98635.29;104922;1273;74776;-72
2022/05/21 06:10:13;;;;;;;23.80;14.40;;;;;;;11.97;100.00;98629.04;104874;1272;61331;-66
2022/05/21 06:13:01;;;;;;;20.60;14.00;;;;;;;12.00;100.00;98620.14;105081;1273;59562;-69
2022/05/21 06:15:50;;;;;;;20.00;12.80;;;;;;;12.03;100.00;98609.86;104695;1274;74563;-63
2022/05/21 06:18:38;;;;;;;18.30;11.80;;;;;;;12.05;100.00;98607.00;104768;1273;66736;-65
2022/05/21 06:21:27;;;;;;;17.70;11.10;;;;;;;12.07;100.00;98604.67;104850;1273;72684;-64
2022/05/21 06:24:14;;;;;;;17.40;11.00;;;;;;;12.12;100.00;98599.67;104707;1273;60782;-64
2022/05/21 06:27:07;;;;;;;15.00;9.60;;;;;;;12.16;100.00;98586.27;104881;1273;59561;-66
2022/05/21 06:29:56;;;;;;;14.40;9.30;;;;;;;12.15;100.00;98584.80;104645;1273;74630;-69
2022/05/21 06:32:44;;;;;;;15.70;10.40;;;;;;;12.14;100.00;98578.84;104922;1273;68520;-66
2022/05/21 06:35:33;;;;;;;17.80;11.20;;;;;;;12.22;100.00;98575.07;104759;1273;73554;-67
2022/05/21 06:38:21;;;;;;;17.10;10.50;;;;;;;12.33;100.00;98572.17;104712;1273;59748;-67
2022/05/21 06:41:12;;;;;;;17.30;10.70;;;;;;;12.42;100.00;98570.11;104768;1273;61643;-66
2022/05/21 06:44:04;;;;;;;16.10;10.10;;;;;;;12.53;100.00;98564.36;104968;1274;73866;-66
2022/05/21 06:46:54;;;;;;;16.70;10.90;;;;;;;12.60;99.76;98559.58;104774;1274;68674;-66
2022/05/21 06:49:42;;;;;;;16.70;10.00;;;;;;;12.66;99.31;98558.84;104774;1273;73626;-67
2022/05/21 06:52:30;;;;;;;15.20;8.50;;;;;;;12.72;99.28;98562.16;105106;1273;59698;-69
2022/05/21 06:55:21;;;;;;;17.20;10.70;;;;;;;12.75;99.04;98561.85;104724;1273;59653;-66
2022/05/21 06:58:09;;;;;;;14.50;8.80;;;;;;;12.80;99.31;98561.95;105329;1273;73887;-70
2022/05/21 07:00:57;;;;;;;16.20;9.00;;;;;;;12.84;99.04;98557.60;105055;1273;69547;-69
2022/05/21 07:03:46;;;;;;;14.80;9.00;;;;;;;12.85;98.95;98553.98;104643;1273;71156;-68
2022/05/21 07:09:41;;;;;;;14.10;9.20;;;;;;;12.89;98.50;98556.02;104831;1274;62074;-70
2022/05/21 07:12:30;;;;;;;16.20;10.20;;;;;;;12.88;98.70;98558.30;104730;1273;73878;-64
2022/05/21 07:15:19;;;;;;;16.40;10.70;;;;;;;12.90;98.77;98558.25;104627;1273;68059;-65
2022/05/21 07:18:07;;;;;;;16.20;10.60;;;;;;;12.99;98.99;98555.13;104850;1273;72066;-67
2022/05/21 07:20:56;;;;;;;17.50;11.10;;;;;;;13.12;99.01;98555.73;104623;1273;61351;-66
2022/05/21 07:23:46;;;;;;;19.50;10.70;;;;;;;13.23;98.60;98556.58;104519;1273;60379;-69
2022/05/21 07:26:34;;;;;;;17.90;11.90;;;;;;;13.29;98.16;98559.98;104904;1273;72742;-65
2022/05/21 07:29:25;;;;;;;13.80;9.20;;;;;;;13.28;97.90;98558.32;104719;1273;68717;-66
2022/05/21 07:32:21;;;;;;;16.40;9.90;;;;;;;13.19;98.21;98559.32;104710;1273;74287;-64
2022/05/21 07:35:13;;;;;;;15.40;8.90;;;;;;;13.09;99.16;98557.91;104416;1273;59717;-66
2022/05/21 07:38:12;;;;;;;12.90;6.90;;;;;;;13.10;99.79;98565.14;104954;1273;60297;-70
2022/05/21 07:41:00;;;;;;;9.80;4.90;;;;;;;13.10;99.99;98569.55;104698;1273;73193;-65
2022/05/21 07:43:48;;;;;;;9.10;4.00;;;;;;;13.07;99.88;98571.52;104942;1273;68662;-65
2022/05/21 07:46:36;;;;;;;6.50;2.60;;;;;;;13.06;99.93;98568.95;104613;1273;72554;-67
2022/05/21 07:49:24;;;;;;;5.80;2.20;;;;;;;13.03;99.79;98568.73;105015;1273;59632;-70
2022/05/21 07:52:12;;;;;;;6.50;2.10;;;;;;;13.00;99.56;98569.48;104738;1273;60541;-68
2022/05/21 07:55:01;;;;;;;5.80;1.80;;;;;;;13.00;99.58;98572.20;104674;1273;73941;-70
2022/05/21 07:57:49;;;;;;;5.60;1.90;;;;;;;13.00;99.57;98581.61;105078;1273;68122;-67
2022/05/21 08:00:41;;;;;;;6.00;2.30;;;;;;;12.95;98.87;98572.95;104723;1273;73567;-69
2022/05/21 08:03:29;;;;;;;5.80;2.20;;;;;;;12.90;98.02;98577.15;105224;1273;59781;-67
2022/05/21 08:06:17;;;;;;;7.50;3.10;;;;;;;12.81;98.25;98577.39;104574;1273;60377;-69
2022/05/21 08:09:05;;;;;;;9.70;4.70;;;;;;;12.71;98.60;98577.25;104587;1273;74384;-67
2022/05/21 08:11:55;;;;;;;10.10;4.50;;;;;;;12.63;98.95;98581.53;104641;1273;68796;-69
2022/05/21 08:14:43;;;;;;;9.00;3.90;;;;;;;12.55;99.25;98582.34;104629;1273;73198;-66
2022/05/21 08:17:35;;;;;;;9.20;4.10;;;;;;;12.51;99.96;98579.68;104581;1273;59847;-67
2022/05/21 08:20:23;;;;;;;8.60;4.20;;;;;;;12.43;99.87;98581.54;104607;1273;60580;-68
2022/05/21 08:29:36;;;;;;;7.00;2.90;;;;;;;12.34;99.86;98587.38;104910;1273;74276;-69
2022/05/21 08:32:23;;;;;;;6.90;2.20;;;;;;;12.34;100.00;98587.35;104917;1273;59638;-70
2022/05/21 08:35:13;;;;;;;6.50;2.40;;;;;;;12.36;100.00;98587.24;104935;1273;62072;-70
2022/05/21 08:38:01;;;;;;;6.20;2.20;;;;;;;12.38;100.00;98587.05;105037;1273;73276;-69
2022/05/21 08:41:03;;;;;;;5.80;1.90;;;;;;;12.44;100.00;98591.08;104668;1273;69680;-69
2022/05/21 08:44:17;;;;;;;5.30;1.30;;;;;;;12.68;99.99;98593.83;104732;1273;73546;-68
2022/05/21 08:47:14;;;;;;;5.90;1.90;;;;;;;13.31;97.62;98588.80;104873;1273;59717;-69
2022/05/21 08:50:13;;;;;;;4.40;1.20;;;;;;;13.31;95.55;98663.62;104883;1273;62041;-67
2022/05/21 08:53:23;;;;;;;4.30;1.00;;;;;;;13.00;91.73;98740.74;104636;1273;72115;-66
2022/05/21 08:56:11;;;;;;;4.00;1.00;;;;;;;12.62;89.86;98779.66;104651;1273;68420;-66
2022/05/21 08:59:07;;;;;;;4.00;1.00;;;;;;;12.46;90.14;98805.57;104682;1272;74488;-68
2022/05/21 09:01:55;;;;;;;3.40;0.70;;;;;;;12.31;89.72;98815.48;104687;1273;61292;-70
2022/05/21 09:04:46;;;;;;;4.20;0.90;;;;;;;12.22;88.99;98822.99;104667;1273;62362;-68
2022/05/21 09:08:13;;;;;;;3.60;0.90;;;;;;;12.20;89.41;98844.52;104612;1273;74737;-69
2022/05/21 09:11:12;;;;;;;3.50;0.80;;;;;;;11.91;88.45;98878.59;103685;1284;354539;-67
2022/05/21 09:14:01;;;;;;;4.10;1.10;;;;;;;11.67;87.90;98894.85;104033;1284;73586;-70
2022/05/21 09:16:56;;;;;;;3.40;0.90;;;;;;;11.39;88.37;98916.46;104273;1284;59703;-68
2022/05/21 09:19:56;;;;;;;4.70;1.00;;;;;;;11.22;90.24;98933.08;103745;1284;61664;-68
2022/05/21 09:22:56;;;;;;;5.00;1.00;;;;;;;11.10;90.31;98948.80;104223;1284;74094;-69
2022/05/21 09:25:44;;;;;;;4.10;0.80;;;;;;;10.99;90.93;98953.95;104044;1284;69176;-68
2022/05/21 09:28:37;;;;;;;5.50;1.30;;;;;;;10.90;90.82;98957.63;104032;1284;74533;-67
2022/05/21 09:31:31;;;;;;;4.50;0.90;;;;;;;10.96;91.19;98964.15;104304;1284;59738;-70
2022/05/21 09:34:35;;;;;;;5.70;1.80;;;;;;;11.04;90.67;98979.86;103933;1284;60580;-69
2022/05/21 09:37:28;;;;;;;3.60;0.80;;;;;;;11.11;89.70;98986.16;103897;1284;74990;-68
2022/05/21 09:40:38;;;;;;;3.70;1.00;;;;;;;11.07;89.08;99002.48;103919;1284;66564;-68
2022/05/21 09:46:46;;;;;;;3.50;0.70;;;;;;;10.92;89.25;99020.64;104016;1285;59818;-66
2022/05/21 09:49:33;;;;;;;3.50;0.70;;;;;;;10.85;90.11;99029.29;104811;1273;62108;-69
2022/05/21 09:52:24;;;;;;;3.10;0.70;;;;;;;10.83;89.87;99030.87;104755;1273;73702;-66
2022/05/21 09:55:28;;;;;;;5.10;1.70;;;;;;;10.86;89.99;99033.94;104699;1273;67397;-70
2022/05/21 09:58:16;;;;;;;3.80;1.00;;;;;;;10.94;89.48;99045.09;104846;1273;72837;-69
2022/05/21 10:01:08;;;;;;;3.30;0.80;;;;;;;10.99;89.38;99051.14;104667;1273;59651;-68
2022/05/21 10:03:58;;;;;;;3.60;0.90;;;;;;;11.19;89.82;99058.14;104933;1273;61729;-69
2022/05/21 10:07:09;;;;;;;3.90;0.90;;;;;;;11.36;88.63;99055.67;104940;1273;74189;-68
2022/05/21 10:13:07;;;;;;;4.00;1.00;;;;;;;12.06;84.04;99067.84;104728;1273;73313;-68
2022/05/21 10:16:33;;;;;;;3.50;0.90;;;;;;;12.14;84.21;99067.20;105074;1273;59787;-67
2022/05/21 10:19:40;;;;;;;4.00;1.00;;;;;;;12.09;82.61;99078.05;105078;1273;62110;-67
2022/05/21 10:23:04;;;;;;;3.80;0.90;;;;;;;12.20;83.26;99071.23;105136;1273;73083;-67
2022/05/21 10:26:19;;;;;;;3.70;0.80;;;;;;;12.38;82.39;99081.71;105064;1273;67044;-68
2022/05/21 10:29:16;;;;;;;4.20;1.00;;;;;;;12.53;81.45;99088.40;104626;1274;73889;-69
2022/05/21 10:32:12;;;;;;;4.80;1.20;;;;;;;12.70;81.23;99094.16;104874;1273;59538;-67
2022/05/21 10:35:39;;;;;;;3.90;0.90;;;;;;;12.88;81.03;99096.57;104904;1273;59649;-70
2022/05/21 10:38:54;;;;;;;4.00;0.90;;;;;;;12.98;79.21;99107.51;104738;1273;74441;-64
2022/05/21 10:42:39;;;;;;;3.70;0.80;;;;;;;12.91;77.98;99120.32;104899;1272;69172;-66
2022/05/21 10:45:46;;;;;;;4.70;1.10;;;;;;;12.66;78.56;99116.45;104644;1274;72546;-66
2022/05/21 10:49:09;;;;;;;4.00;0.90;;;;;;;12.67;79.22;99123.09;104635;1273;59668;-67
2022/05/21 10:52:18;;;;;;;3.50;0.80;;;;;;;12.94;77.49;99131.98;104826;1273;61563;-65
2022/05/21 10:55:13;;;;;;;3.20;0.80;;;;;;;13.45;74.80;99134.92;104907;1273;73944;-65
2022/05/21 10:58:49;;;;;;;3.30;0.70;;;;;;;13.44;74.56;99135.77;105242;1273;67023;-66
2022/05/21 11:02:17;;;;;;;3.00;0.80;;;;;;;13.40;75.15;99141.27;105021;1273;74254;-66
2022/05/21 11:05:31;;;;;;;3.30;0.70;;;;;;;13.53;74.48;99142.61;104523;1276;59770;-63
2022/05/21 11:08:37;;;;;;;4.50;0.90;;;;;;;13.88;73.83;99143.63;104911;1273;60540;-68
2022/05/21 11:11:49;;;;;;;4.50;0.90;;;;;;;13.77;73.26;99152.66;104650;1273;74849;-63
2022/05/21 11:15:12;;;;;;;4.40;0.70;;;;;;;13.49;73.42;99158.89;104991;1273;68208;-66
2022/05/21 11:18:27;;;;;;;4.40;1.00;;;;;;;13.34;73.43;99160.43;104845;1273;73284;-65
2022/05/21 11:21:48;;;;;;;4.80;0.90;;;;;;;13.79;74.28;99164.12;104591;1273;59689;-65
2022/05/21 11:25:05;;;;;;;5.30;1.10;;;;;;;13.90;72.55;99159.27;104880;1273;59622;-66
2022/05/21 11:28:24;;;;;;;4.50;0.80;;;;;;;13.61;72.08;99169.63;105194;1273;73612;-66
2022/05/21 11:38:45;;;;;;;4.30;0.80;;;;;;;12.45;77.98;99181.89;104820;1273;61297;-64
2022/05/21 11:42:03;;;;;;;3.80;0.90;;;;;;;12.24;78.53;99193.07;104937;1273;60339;-66
2022/05/21 11:44:55;;;;;;;4.10;0.90;;;;;;;12.10;80.36;99189.63;104693;1273;74665;-66
2022/05/21 11:48:26;;;;;;;3.70;1.00;;;;;;;12.03;80.79;99191.88;104646;1273;69665;-66
2022/05/21 11:51:17;;;;;;;3.50;0.70;;;;;;;11.94;82.01;99203.54;104665;1284;72427;-66
2022/05/21 11:54:44;;;;;;;3.90;0.90;;;;;;;11.84;83.07;99205.90;105810;1284;59870;-67
2022/05/21 11:58:13;;;;;;;4.20;1.10;;;;;;;11.58;83.17;99214.05;106135;1284;61033;-67
2022/05/21 12:01:36;;;;;;;3.30;0.80;;;;;;;11.46;83.55;99220.35;104177;1284;73922;-66
2022/05/21 12:04:37;;;;;;;3.60;0.90;;;;;;;11.38;84.71;99223.95;103974;1284;68305;-67
2022/05/21 12:07:40;;;;;;;3.60;0.80;;;;;;;11.35;84.60;99225.69;104036;1284;72292;-68
2022/05/21 12:11:15;;;;;;;3.00;0.70;;;;;;;11.25;85.74;99222.65;104122;1284;59770;-68
2022/05/21 12:14:19;;;;;;;3.70;0.90;;;;;;;11.13;86.63;99226.73;103721;1284;62030;-67
2022/05/21 12:17:36;;;;;;;4.10;1.00;;;;;;;11.09;86.58;99226.30;103676;1284;73762;-67
2022/05/21 12:20:50;;;;;;;4.00;0.90;;;;;;;11.05;87.44;99238.06;103676;1285;68470;-65
2022/05/21 12:23:58;;;;;;;4.80;1.00;;;;;;;10.84;87.84;99243.67;103670;1284;73409;-65
2022/05/21 12:26:47;;;;;;;5.10;1.00;;;;;;;10.75;89.51;99245.06;103724;1284;59828;-66
2022/05/21 12:29:45;;;;;;;5.80;1.30;;;;;;;10.74;89.39;99237.70;104797;1276;59621;-66
2022/05/21 12:32:39;;;;;;;4.90;1.20;;;;;;;10.84;89.23;99247.27;104803;1276;71942;-64
2022/05/21 12:35:50;;;;;;;4.80;1.00;;;;;;;11.12;87.75;99248.39;104477;1276;68398;-65
2022/05/21 12:38:41;;;;;;;5.10;1.20;;;;;;;11.49;86.33;99249.42;104601;1276;74546;-65
2022/05/21 12:41:39;;;;;;;5.10;1.30;;;;;;;11.68;84.55;99254.91;104552;1276;61392;-69
2022/05/21 12:44:45;;;;;;;5.30;1.30;;;;;;;11.85;82.58;99258.27;104585;1276;61256;-65
2022/05/21 12:47:38;;;;;;;5.90;1.30;;;;;;;12.14;81.50;99252.88;104559;1276;74281;-63
2022/05/21 12:50:27;;;;;;;5.40;1.20;;;;;;;12.31;80.50;99252.66;104509;1276;68823;-68
2022/05/21 12:53:52;;;;;;;5.80;1.30;;;;;;;12.24;81.02;99256.83;104567;1276;72221;-68
2022/05/21 12:56:40;;;;;;;4.80;1.10;;;;;;;12.06;80.08;99260.75;103859;1282;59950;-65
2022/05/21 12:59:30;;;;;;;5.10;1.10;;;;;;;11.88;80.26;99266.85;103933;1282;62089;-68
2022/05/21 13:02:20;;;;;;;4.50;1.10;;;;;;;11.76;81.58;99269.77;104006;1281;75156;-65
2022/05/21 13:05:12;;;;;;;4.90;1.00;;;;;;;11.64;82.21;99267.05;104064;1281;67035;-67
2022/05/21 13:08:04;;;;;;;5.30;1.20;;;;;;;11.48;81.89;99275.29;104068;1281;73571;-65
2022/05/21 13:11:15;;;;;;;5.80;1.30;;;;;;;11.57;82.27;99272.52;104119;1281;59712;-66
2022/05/21 13:14:11;;;;;;;5.20;1.40;;;;;;;11.90;81.30;99267.73;104488;1281;59676;-66
2022/05/21 13:17:01;;;;;;;5.00;1.40;;;;;;;12.16;78.86;99266.36;104028;1283;72928;-64
2022/05/21 13:20:21;;;;;;;7.50;1.80;;;;;;;12.34;77.38;99264.11;104053;1282;69790;-68
2022/05/21 13:23:31;;;;;;;6.90;1.70;;;;;;;12.64;77.17;99262.34;104213;1281;74495;-64
2022/05/21 13:26:23;;;;;;;5.00;1.10;;;;;;;12.76;74.60;99262.98;104225;1281;59807;-67
2022/05/21 13:29:27;;;;;;;5.30;1.20;;;;;;;12.94;75.07;99264.60;104113;1281;60951;-67
2022/05/21 13:32:27;;;;;;;8.00;1.10;;;;;;;13.04;72.98;99269.85;104115;1281;72597;-66
2022/05/21 13:35:40;;;;;;;6.30;1.20;;;;;;;13.22;71.56;99264.98;104603;1274;67305;-66
2022/05/21 13:38:38;;;;;;;5.70;1.50;;;;;;;13.26;71.54;99264.35;104620;1274;73712;-67
2022/05/21 13:41:33;;;;;;;5.50;1.00;;;;;;;13.14;71.10;99262.83;104646;1274;59672;-66
2022/05/21 13:44:25;;;;;;;6.10;1.40;;;;;;;13.07;71.37;99258.09;104585;1274;61105;-66
2022/05/21 13:47:19;;;;;;;5.80;1.50;;;;;;;13.09;72.37;99271.61;104940;1274;73773;-64
2022/05/21 13:50:09;;;;;;;6.80;1.70;;;;;;;13.05;72.77;99269.57;104612;1275;69176;-67
2022/05/21 13:53:02;;;;;;;5.90;1.30;;;;;;;12.87;72.93;99269.76;104943;1273;73816;-65
2022/05/21 13:56:15;;;;;;;6.00;1.50;;;;;;;12.71;73.40;99272.02;104624;1273;60455;-65
2022/05/21 13:59:26;;;;;;;4.90;1.10;;;;;;;12.55;74.03;99275.49;104678;1273;59626;-65